Time;durP1;ratioP1;P1;durP2;ratioP2;P2;SDS_P1;SDS_P2;PMS_P1;PMS_P2;Temp;Humidity;BMP_temperature;BMP_pressure;BME280_temperature;BME280_humidity;BME280_pressure;Samples;Min_cycle;Max_cycle;Signal;HPM_P1;HPM_P2
2021/06/16 00:01:11;;;;;;;;;19.25;18.75;;;;;-144.77;100.00;61770.03;4967876;28;47019;-83
2021/06/16 00:03:36;;;;;;;;;20.00;19.50;;;;;-144.77;100.00;61770.03;4980187;28;47058;-82
2021/06/16 00:06:02;;;;;;;;;21.75;21.00;;;;;-144.77;100.00;61770.03;4980433;28;47316;-83
2021/06/16 00:08:28;;;;;;;;;22.00;20.25;;;;;-144.77;100.00;61770.03;4981602;28;47134;-82
2021/06/16 00:10:54;;;;;;;;;22.25;20.50;;;;;-144.77;100.00;61770.03;4968982;28;46854;-83
2021/06/16 00:13:20;;;;;;;;;20.75;20.50;;;;;-144.77;100.00;61770.03;4963985;28;46886;-83
2021/06/16 00:15:47;;;;;;;;;21.25;21.25;;;;;-144.77;100.00;61770.03;4981733;28;47341;-83
2021/06/16 00:18:13;;;;;;;;;23.00;23.00;;;;;-144.77;100.00;61770.03;4980868;28;47110;-83
2021/06/16 00:20:39;;;;;;;;;21.00;20.50;;;;;-144.77;100.00;61770.03;4980260;28;47051;-83
2021/06/16 00:23:05;;;;;;;;;20.50;20.50;;;;;-144.77;100.00;61770.03;4979086;28;47020;-82
2021/06/16 00:25:32;;;;;;;;;22.25;20.25;;;;;-144.77;100.00;61770.03;4975317;28;47018;-82
2021/06/16 00:27:58;;;;;;;;;22.00;22.00;;;;;-144.77;100.00;61770.03;4981053;28;47465;-82
2021/06/16 00:30:25;;;;;;;;;20.25;20.00;;;;;-144.77;100.00;61770.03;4963859;28;47541;-82
2021/06/16 00:32:51;;;;;;;;;21.75;20.00;;;;;-144.77;100.00;61770.03;4981080;28;46913;-82
2021/06/16 00:35:19;;;;;;;;;21.50;20.50;;;;;-144.77;100.00;61770.03;4981876;28;47066;-83
2021/06/16 00:37:46;;;;;;;;;24.75;19.50;;;;;-144.77;100.00;61770.03;4978959;28;47079;-82
2021/06/16 00:40:14;;;;;;;;;22.00;20.75;;;;;-144.77;100.00;61770.03;4981080;28;47244;-82
2021/06/16 00:42:40;;;;;;;;;23.00;21.00;;;;;-144.77;100.00;61770.03;4979484;28;47166;-82
2021/06/16 00:45:10;;;;;;;;;20.25;17.75;;;;;-144.77;100.00;61770.03;4981560;28;47039;-82
2021/06/16 00:47:36;;;;;;;;;23.00;22.00;;;;;-144.77;100.00;61770.03;4963273;28;46950;-82
2021/06/16 00:50:05;;;;;;;;;24.25;22.25;;;;;-144.77;100.00;61770.03;4981211;28;47327;-82
2021/06/16 00:52:31;;;;;;;;;22.75;19.75;;;;;-144.77;100.00;61770.03;4980887;28;46902;-82
2021/06/16 00:54:56;;;;;;;;;22.25;20.25;;;;;-144.77;100.00;61770.03;4980975;28;46836;-82
2021/06/16 00:57:22;;;;;;;;;19.25;18.50;;;;;-144.77;100.00;61770.03;4971560;28;47291;-82
2021/06/16 01:00:03;;;;;;;;;18.25;18.25;;;;;-144.77;100.00;61770.03;4974416;28;47233;-82
2021/06/16 01:02:34;;;;;;;;;23.75;23.25;;;;;-144.77;100.00;61770.03;4973598;28;46924;-83
2021/06/16 01:05:01;;;;;;;;;21.25;20.25;;;;;-144.77;100.00;61770.03;4980720;28;47145;-83
2021/06/16 01:07:32;;;;;;;;;22.75;21.50;;;;;-144.77;100.00;61770.03;4979425;28;47171;-82
2021/06/16 01:10:01;;;;;;;;;22.00;22.00;;;;;-144.77;100.00;61770.03;4979630;28;47376;-82
2021/06/16 01:12:54;;;;;;;;;20.00;19.25;;;;;-144.77;100.00;61770.03;4980367;28;47102;-82
2021/06/16 01:15:23;;;;;;;;;19.00;18.75;;;;;-144.77;100.00;61770.03;4981219;28;47032;-82
2021/06/16 01:17:58;;;;;;;;;22.50;19.75;;;;;-144.77;100.00;61770.03;4978938;28;47087;-82
2021/06/16 01:20:40;;;;;;;;;20.25;19.75;;;;;-144.77;100.00;61770.03;4980644;28;47184;-81
2021/06/16 01:23:09;;;;;;;;;25.50;21.25;;;;;-144.77;100.00;61770.03;4976840;28;46984;-82
2021/06/16 01:25:49;;;;;;;;;23.75;20.50;;;;;-144.77;100.00;61770.03;4955409;28;47111;-80
2021/06/16 01:28:18;;;;;;;;;23.25;22.00;;;;;-144.77;100.00;61770.03;4976457;28;47720;-80
2021/06/16 01:30:47;;;;;;;;;21.50;20.75;;;;;-144.77;100.00;61770.03;4980708;28;47066;-80
2021/06/16 01:33:15;;;;;;;;;23.50;22.25;;;;;-144.77;100.00;61770.03;4980341;28;47052;-80
2021/06/16 01:35:46;;;;;;;;;23.25;21.00;;;;;-144.77;100.00;61770.03;4980671;28;46982;-80
2021/06/16 01:38:14;;;;;;;;;22.75;19.25;;;;;-144.77;100.00;61770.03;4972446;28;46867;-80
2021/06/16 01:40:41;;;;;;;;;26.25;22.50;;;;;-144.77;100.00;61770.03;4970354;28;47106;-80
2021/06/16 01:43:09;;;;;;;;;24.50;19.25;;;;;-144.77;100.00;61770.03;4978943;28;46999;-80
2021/06/16 01:45:36;;;;;;;;;22.00;20.00;;;;;-144.77;100.00;61770.03;4980673;28;46908;-80
2021/06/16 01:48:06;;;;;;;;;20.00;17.25;;;;;-144.77;100.00;61770.03;4979840;28;47820;-81
2021/06/16 01:50:33;;;;;;;;;22.25;20.25;;;;;-144.77;100.00;61770.03;4980135;28;47128;-80
2021/06/16 01:52:59;;;;;;;;;28.50;23.50;;;;;-144.77;100.00;61770.03;4978846;28;47038;-80
2021/06/16 01:55:25;;;;;;;;;22.25;20.25;;;;;-144.77;100.00;61770.03;4979966;28;47051;-80
2021/06/16 01:57:57;;;;;;;;;19.00;17.75;;;;;-144.77;100.00;61770.03;4979854;28;47070;-80
2021/06/16 02:00:24;;;;;;;;;20.50;20.50;;;;;-144.77;100.00;61770.03;4972634;28;47131;-80
2021/06/16 02:02:50;;;;;;;;;23.00;22.25;;;;;-144.77;100.00;61770.03;4978188;28;46910;-80
2021/06/16 02:05:19;;;;;;;;;20.00;19.50;;;;;-144.77;100.00;61770.03;4980136;28;46904;-80
2021/06/16 02:07:54;;;;;;;;;23.25;22.25;;;;;-144.77;100.00;61770.03;4979756;28;47039;-80
2021/06/16 02:10:24;;;;;;;;;22.25;21.00;;;;;-144.77;100.00;61770.03;4973546;28;47398;-80
2021/06/16 02:12:51;;;;;;;;;22.75;22.75;;;;;-144.77;100.00;61770.03;4979833;28;46936;-80
2021/06/16 02:15:19;;;;;;;;;21.50;19.50;;;;;-144.77;100.00;61770.03;4980141;28;47026;-81
2021/06/16 02:17:52;;;;;;;;;20.25;19.25;;;;;-144.77;100.00;61770.03;4979064;28;47885;-80
2021/06/16 02:20:21;;;;;;;;;22.50;21.00;;;;;-144.77;100.00;61770.03;4978239;28;47165;-81
2021/06/16 02:22:48;;;;;;;;;20.25;19.25;;;;;-144.77;100.00;61770.03;4978030;28;47141;-81
2021/06/16 02:25:16;;;;;;;;;21.25;20.75;;;;;-144.77;100.00;61770.03;4959113;28;47059;-81
2021/06/16 02:27:42;;;;;;;;;24.50;22.00;;;;;-144.77;100.00;61770.03;4976663;28;46853;-81
2021/06/16 02:30:08;;;;;;;;;24.75;23.75;;;;;-144.77;100.00;61770.03;4979598;28;47209;-81
2021/06/16 02:32:35;;;;;;;;;24.00;20.75;;;;;-144.77;100.00;61770.03;4978066;28;47060;-81
2021/06/16 02:35:01;;;;;;;;;25.25;22.75;;;;;-144.77;100.00;61770.03;4979621;28;46995;-81
2021/06/16 02:37:28;;;;;;;;;23.50;20.50;;;;;-144.77;100.00;61770.03;4979371;28;47466;-82
2021/06/16 02:40:11;;;;;;;;;25.75;24.25;;;;;-144.77;100.00;61770.03;4978419;28;47358;-83
2021/06/16 02:42:39;;;;;;;;;23.00;22.50;;;;;-144.77;100.00;61770.03;4977893;28;47164;-82
2021/06/16 02:45:07;;;;;;;;;27.25;24.25;;;;;-144.77;100.00;61770.03;4979017;28;46806;-82
2021/06/16 02:47:37;;;;;;;;;28.50;22.00;;;;;-144.77;100.00;61770.03;4979331;28;47955;-82
2021/06/16 02:50:05;;;;;;;;;24.75;22.25;;;;;-144.77;100.00;61770.03;4961700;28;46940;-82
2021/06/16 02:52:32;;;;;;;;;24.75;22.75;;;;;-144.77;100.00;61770.03;4979341;28;46913;-82
2021/06/16 02:55:02;;;;;;;;;25.75;24.75;;;;;-144.77;100.00;61770.03;4979475;28;46927;-82
2021/06/16 02:57:30;;;;;;;;;24.25;23.25;;;;;-144.77;100.00;61770.03;4978898;28;46959;-82
2021/06/16 02:59:57;;;;;;;;;23.75;23.50;;;;;-144.77;100.00;61770.03;4965025;28;47168;-82
2021/06/16 03:02:26;;;;;;;;;24.50;22.50;;;;;-144.77;100.00;61770.03;4976984;28;47158;-82
2021/06/16 03:04:53;;;;;;;;;23.00;22.25;;;;;-144.77;100.00;61770.03;4979533;28;47054;-82
2021/06/16 03:07:20;;;;;;;;;27.00;22.50;;;;;-144.77;100.00;61770.03;4977568;28;48526;-82
2021/06/16 03:09:48;;;;;;;;;23.75;22.50;;;;;-144.77;100.00;61770.03;4972059;28;46937;-82
2021/06/16 03:12:16;;;;;;;;;30.00;26.00;;;;;-144.77;100.00;61770.03;4976049;28;47004;-82
2021/06/16 03:14:42;;;;;;;;;24.25;22.75;;;;;-144.77;100.00;61770.03;4961816;28;46930;-82
2021/06/16 03:17:09;;;;;;;;;27.25;25.50;;;;;-144.77;100.00;61770.03;4978886;28;47067;-82
2021/06/16 03:19:37;;;;;;;;;21.25;21.00;;;;;-144.77;100.00;61770.03;4978436;28;46904;-82
2021/06/16 03:22:04;;;;;;;;;25.25;21.75;;;;;-144.77;100.00;61770.03;4956544;28;47056;-82
2021/06/16 03:24:30;;;;;;;;;26.00;22.50;;;;;-144.77;100.00;61770.03;4967476;28;47281;-82
2021/06/16 03:26:57;;;;;;;;;21.75;18.75;;;;;-144.77;100.00;61770.03;4961052;28;48517;-82
2021/06/16 03:29:23;;;;;;;;;21.75;20.25;;;;;-144.77;100.00;61770.03;4978669;28;47544;-82
2021/06/16 03:31:51;;;;;;;;;23.50;23.00;;;;;-144.77;100.00;61770.03;4977527;28;46925;-82
2021/06/16 03:34:17;;;;;;;;;27.50;25.25;;;;;-144.77;100.00;61770.03;4978768;28;46834;-82
2021/06/16 03:36:45;;;;;;;;;27.50;23.25;;;;;-144.77;100.00;61770.03;4961200;28;49292;-82
2021/06/16 03:39:14;;;;;;;;;30.00;27.50;;;;;-144.77;100.00;61770.03;4978676;28;47469;-82
2021/06/16 03:41:41;;;;;;;;;22.50;22.50;;;;;-144.77;100.00;61770.03;4977627;28;47019;-83
2021/06/16 03:44:08;;;;;;;;;30.25;28.50;;;;;-144.77;100.00;61770.03;4967180;28;47043;-82
2021/06/16 03:46:36;;;;;;;;;26.75;23.75;;;;;-144.77;100.00;61770.03;4978650;28;47740;-82
2021/06/16 03:49:05;;;;;;;;;26.00;23.50;;;;;-144.77;100.00;61770.03;4978435;28;47323;-82
2021/06/16 03:51:33;;;;;;;;;28.25;21.50;;;;;-144.77;100.00;61770.03;4978592;28;46964;-82
2021/06/16 03:54:01;;;;;;;;;26.75;25.50;;;;;-144.77;100.00;61770.03;4978846;28;46952;-82
2021/06/16 03:56:27;;;;;;;;;27.25;24.75;;;;;-144.77;100.00;61770.03;4978080;28;47270;-82
2021/06/16 03:58:54;;;;;;;;;26.75;26.75;;;;;-144.77;100.00;61770.03;4978637;28;47264;-82
2021/06/16 04:01:20;;;;;;;;;27.00;23.25;;;;;-144.77;100.00;61770.03;4978413;28;47041;-82
2021/06/16 04:03:47;;;;;;;;;31.50;26.00;;;;;-144.77;100.00;61770.03;4977485;28;46806;-82
2021/06/16 04:06:14;;;;;;;;;28.00;24.50;;;;;-144.77;100.00;61770.03;4978044;28;48141;-82
2021/06/16 04:08:43;;;;;;;;;21.25;20.75;;;;;-144.77;100.00;61770.03;4978356;28;47548;-82
2021/06/16 04:11:11;;;;;;;;;24.25;22.25;;;;;-144.77;100.00;61770.03;4966516;28;47068;-82
2021/06/16 04:13:37;;;;;;;;;26.50;26.00;;;;;-144.77;100.00;61770.03;4979237;28;46894;-81
2021/06/16 04:16:03;;;;;;;;;30.50;25.75;;;;;-144.77;100.00;61770.03;4981442;28;46937;-82
2021/06/16 04:18:30;;;;;;;;;29.00;27.25;;;;;-144.77;100.00;61770.03;4980411;28;47750;-82
2021/06/16 04:20:56;;;;;;;;;30.75;29.50;;;;;-144.77;100.00;61770.03;4981603;28;47050;-82
2021/06/16 04:23:22;;;;;;;;;27.75;23.75;;;;;-144.77;100.00;61770.03;4963612;28;47048;-82
2021/06/16 04:25:47;;;;;;;;;30.75;29.25;;;;;-144.77;100.00;61770.03;4975590;28;47795;-81
2021/06/16 04:28:13;;;;;;;;;29.50;26.75;;;;;-144.77;100.00;61770.03;4981097;28;46937;-81
2021/06/16 04:30:38;;;;;;;;;32.00;30.25;;;;;-144.77;100.00;61770.03;4981824;28;48243;-82
2021/06/16 04:33:04;;;;;;;;;25.00;24.75;;;;;-144.77;100.00;61770.03;4963686;28;47078;-82
2021/06/16 04:35:30;;;;;;;;;29.50;25.50;;;;;-144.77;100.00;61770.03;4981039;28;47066;-82
2021/06/16 04:37:56;;;;;;;;;26.50;25.50;;;;;-144.77;100.00;61770.03;4981003;28;46812;-82
2021/06/16 04:40:21;;;;;;;;;26.00;24.00;;;;;-144.77;100.00;61770.03;4981340;28;47024;-81
2021/06/16 04:42:47;;;;;;;;;27.00;25.50;;;;;-144.77;100.00;61770.03;4972710;28;47145;-81
2021/06/16 04:45:13;;;;;;;;;28.25;23.25;;;;;-144.77;100.00;61770.03;4979277;28;47108;-81
2021/06/16 04:47:39;;;;;;;;;28.25;25.25;;;;;-144.77;100.00;61770.03;4980627;28;47095;-81
2021/06/16 04:50:08;;;;;;;;;25.50;23.25;;;;;-144.77;100.00;61770.03;4981517;28;47011;-81
2021/06/16 04:52:33;;;;;;;;;25.00;25.00;;;;;-144.77;100.00;61770.03;4981246;28;47091;-81
2021/06/16 04:54:59;;;;;;;;;24.00;23.25;;;;;-144.77;100.00;61770.03;4979753;28;48711;-81
2021/06/16 04:57:24;;;;;;;;;28.50;27.00;;;;;-144.77;100.00;61770.03;4980386;28;46853;-81
2021/06/16 04:59:50;;;;;;;;;27.00;24.25;;;;;-144.77;100.00;61770.03;4977278;28;47116;-82
2021/06/16 05:02:16;;;;;;;;;26.00;24.25;;;;;-144.77;100.00;61770.03;4978537;28;46876;-82
2021/06/16 05:04:41;;;;;;;;;30.00;26.25;;;;;-144.77;100.00;61770.03;4981005;28;46994;-82
2021/06/16 05:07:07;;;;;;;;;30.00;25.75;;;;;-144.77;100.00;61770.03;4979126;28;46860;-81
2021/06/16 05:09:33;;;;;;;;;27.50;24.25;;;;;-144.77;100.00;61770.03;4973439;28;47163;-82
2021/06/16 05:11:58;;;;;;;;;26.25;24.75;;;;;-144.77;100.00;61770.03;4980527;28;46873;-82
2021/06/16 05:14:24;;;;;;;;;26.75;25.00;;;;;-144.77;100.00;61770.03;4980905;28;47062;-82
2021/06/16 05:16:54;;;;;;;;;24.50;21.50;;;;;-144.77;100.00;61770.03;4980009;28;47007;-82
2021/06/16 05:19:23;;;;;;;;;22.50;21.50;;;;;-144.77;100.00;61770.03;4962689;28;47145;-82
2021/06/16 05:21:49;;;;;;;;;25.50;23.50;;;;;-144.77;100.00;61770.03;4980959;28;46979;-83
2021/06/16 05:24:15;;;;;;;;;29.50;26.50;;;;;-144.77;100.00;61770.03;4969694;28;47773;-83
2021/06/16 05:26:41;;;;;;;;;23.50;22.00;;;;;-144.77;100.00;61770.03;4970748;28;47287;-83
2021/06/16 05:29:41;;;;;;;;;;;;;;;;;;;;;
2021/06/16 05:32:10;;;;;;;;;22.50;21.25;;;;;-144.77;100.00;61770.03;4972836;28;67184;-83
2021/06/16 05:34:45;;;;;;;;;22.75;20.50;;;;;-144.77;100.00;61770.03;4962687;28;49238;-83
2021/06/16 05:37:10;;;;;;;;;23.25;20.75;;;;;-144.77;100.00;61770.03;4980070;28;46931;-82
2021/06/16 05:39:36;;;;;;;;;24.00;21.25;;;;;-144.77;100.00;61770.03;4979346;28;47038;-82
2021/06/16 05:42:02;;;;;;;;;26.50;24.25;;;;;-144.77;100.00;61770.03;4968825;28;47136;-81
2021/06/16 05:44:28;;;;;;;;;25.00;23.25;;;;;-144.77;100.00;61770.03;4980483;28;47021;-82
2021/06/16 05:46:53;;;;;;;;;23.50;23.50;;;;;-144.77;100.00;61770.03;4980230;28;46963;-83
2021/06/16 05:49:19;;;;;;;;;26.25;25.50;;;;;-144.77;100.00;61770.03;4980419;28;47119;-82
2021/06/16 05:51:44;;;;;;;;;23.50;22.25;;;;;-144.77;100.00;61770.03;4980396;28;47139;-82
2021/06/16 05:54:10;;;;;;;;;24.00;22.25;;;;;-144.77;100.00;61770.03;4979869;28;46905;-82
2021/06/16 05:56:40;;;;;;;;;26.50;23.25;;;;;-144.77;100.00;61770.03;4978682;28;47006;-83
2021/06/16 05:59:07;;;;;;;;;27.00;25.50;;;;;-144.77;100.00;61770.03;4974585;28;47023;-82
2021/06/16 06:01:34;;;;;;;;;30.50;27.00;;;;;-144.77;100.00;61770.03;4973266;28;46975;-83
2021/06/16 06:04:01;;;;;;;;;25.25;22.50;;;;;-144.77;100.00;61770.03;4979980;28;48265;-82
2021/06/16 06:06:30;;;;;;;;;24.75;24.25;;;;;-144.77;100.00;61770.03;4977072;28;46846;-82
2021/06/16 06:08:55;;;;;;;;;32.50;27.25;;;;;-144.77;100.00;61770.03;4976670;28;47019;-82
2021/06/16 06:11:21;;;;;;;;;27.25;24.75;;;;;-144.77;100.00;61770.03;4970845;28;47003;-83
2021/06/16 06:13:47;;;;;;;;;29.25;27.50;;;;;-144.77;100.00;61770.03;4965271;28;47187;-83
2021/06/16 06:16:13;;;;;;;;;28.50;26.75;;;;;-144.77;100.00;61770.03;4975821;28;47072;-84
2021/06/16 06:18:39;;;;;;;;;31.50;28.00;;;;;-144.77;100.00;61770.03;4979442;28;47027;-84
2021/06/16 06:28:38;;;;;;;;;;;;;;;;;;;;;
2021/06/16 06:34:45;;;;;;;;;24.00;24.00;;;;;-144.77;100.00;61770.03;4961508;28;46945;-86
2021/06/16 06:37:10;;;;;;;;;26.50;23.50;;;;;-144.77;100.00;61770.03;4947691;28;48465;-84
2021/06/16 06:39:36;;;;;;;;;21.75;21.00;;;;;-144.77;100.00;61770.03;4978858;28;47157;-84
2021/06/16 06:42:02;;;;;;;;;25.75;24.75;;;;;-144.77;100.00;61770.03;4971496;28;47056;-84
2021/06/16 06:44:28;;;;;;;;;21.75;21.50;;;;;-144.77;100.00;61770.03;4979576;28;47131;-84
2021/06/16 06:46:53;;;;;;;;;22.25;19.50;;;;;-144.77;100.00;61770.03;4979652;28;47710;-84
2021/06/16 06:49:21;;;;;;;;;20.75;20.50;;;;;-144.77;100.00;61770.03;4979417;28;47022;-84
2021/06/16 06:51:47;;;;;;;;;22.00;20.50;;;;;-144.77;100.00;61770.03;4979725;28;47137;-84
2021/06/16 06:54:12;;;;;;;;;21.75;19.50;;;;;-144.77;100.00;61770.03;4979476;28;47293;-85
2021/06/16 06:56:39;;;;;;;;;27.00;20.75;;;;;-144.77;100.00;61770.03;4977865;28;49101;-84
2021/06/16 06:59:04;;;;;;;;;23.50;20.25;;;;;-144.77;100.00;61770.03;4961635;28;47342;-84
2021/06/16 07:01:31;;;;;;;;;21.50;21.00;;;;;-144.77;100.00;61770.03;4978096;28;46972;-85
2021/06/16 07:04:00;;;;;;;;;22.50;22.25;;;;;-144.77;100.00;61770.03;4973055;28;46870;-85
2021/06/16 07:06:38;;;;;;;;;25.50;20.75;;;;;-144.77;100.00;61770.03;4961779;28;47121;-84
2021/06/16 07:09:06;;;;;;;;;21.75;20.00;;;;;-144.77;100.00;61770.03;4973050;28;47896;-84
2021/06/16 07:12:14;;;;;;;;;;;;;;;;;;;;;
2021/06/16 07:14:55;;;;;;;;;;;;;;;;;;;;;
2021/06/16 07:17:56;;;;;;;;;;;;;;;;;;;;;
2021/06/16 07:21:12;;;;;;;;;20.50;20.25;;;;;-144.77;100.00;61770.03;4958581;28;74417;-84
2021/06/16 07:23:37;;;;;;;;;21.00;19.75;;;;;-144.77;100.00;61770.03;4955937;28;47180;-84
2021/06/16 07:26:03;;;;;;;;;21.25;19.00;;;;;-144.77;100.00;61770.03;4970104;28;47179;-81
2021/06/16 07:28:29;;;;;;;;;21.75;21.75;;;;;-144.77;100.00;61770.03;4955705;28;48003;-81
2021/06/16 07:30:54;;;;;;;;;19.00;17.25;;;;;-144.77;100.00;61770.03;4949190;28;47811;-80
2021/06/16 07:33:20;;;;;;;;;20.50;18.25;;;;;-144.77;100.00;61770.03;4959212;28;47012;-80
2021/06/16 07:35:46;;;;;;;;;20.25;18.50;;;;;-144.77;100.00;61770.03;4958287;28;49036;-80
2021/06/16 07:38:12;;;;;;;;;17.50;16.75;;;;;-144.77;100.00;61770.03;4958242;28;46909;-80
2021/06/16 07:40:38;;;;;;;;;23.75;18.00;;;;;-144.77;100.00;61770.03;4957297;28;46915;-80
2021/06/16 07:43:04;;;;;;;;;19.00;16.25;;;;;-144.77;100.00;61770.03;4955974;28;47029;-81
2021/06/16 07:45:30;;;;;;;;;21.50;17.00;;;;;-144.77;100.00;61770.03;4959504;28;47351;-81
2021/06/16 07:47:56;;;;;;;;;18.00;18.00;;;;;-144.77;100.00;61770.03;4960766;28;48002;-81
2021/06/16 07:50:22;;;;;;;;;20.50;16.50;;;;;-144.77;100.00;61770.03;4962250;28;47042;-81
2021/06/16 07:52:47;;;;;;;;;18.50;16.25;;;;;-144.77;100.00;61770.03;4961655;28;46980;-81
2021/06/16 07:55:14;;;;;;;;;14.25;14.25;;;;;-144.77;100.00;61770.03;4962787;28;46850;-82
2021/06/16 07:57:40;;;;;;;;;17.25;16.75;;;;;-144.77;100.00;61770.03;4962135;28;46814;-81
2021/06/16 08:00:07;;;;;;;;;16.00;15.00;;;;;-144.77;100.00;61770.03;4977339;28;47493;-81
2021/06/16 08:02:33;;;;;;;;;17.75;17.25;;;;;-144.77;100.00;61770.03;4961473;28;47124;-81
2021/06/16 08:04:58;;;;;;;;;19.75;16.50;;;;;-144.77;100.00;61770.03;4962548;28;47212;-81
2021/06/16 08:07:24;;;;;;;;;19.00;16.75;;;;;-144.77;100.00;61770.03;4952795;28;47015;-81
2021/06/16 08:09:50;;;;;;;;;17.75;15.25;;;;;-144.77;100.00;61770.03;4967772;28;47119;-82
2021/06/16 08:12:16;;;;;;;;;16.25;16.25;;;;;-144.77;100.00;61770.03;4975290;28;47079;-81
2021/06/16 08:14:42;;;;;;;;;19.00;15.75;;;;;-144.77;100.00;61770.03;4982276;28;47219;-81
2021/06/16 08:17:08;;;;;;;;;14.50;13.50;;;;;-144.77;100.00;61770.03;4981644;28;46856;-81
2021/06/16 08:19:35;;;;;;;;;20.75;14.25;;;;;-144.77;100.00;61770.03;4981606;28;46878;-82
2021/06/16 08:22:02;;;;;;;;;14.00;14.00;;;;;-144.77;100.00;61770.03;4981779;28;46953;-82
2021/06/16 08:24:28;;;;;;;;;12.75;12.00;;;;;-144.77;100.00;61770.03;4973911;28;46826;-81
2021/06/16 08:26:54;;;;;;;;;17.25;14.25;;;;;-144.77;100.00;61770.03;4977122;28;46988;-81
2021/06/16 08:29:20;;;;;;;;;15.25;14.75;;;;;-144.77;100.00;61770.03;4981639;28;47036;-81
2021/06/16 08:31:46;;;;;;;;;15.25;14.00;;;;;-144.77;100.00;61770.03;4981553;28;47124;-81
2021/06/16 08:34:12;;;;;;;;;18.00;16.25;;;;;-144.77;100.00;61770.03;4981628;28;47086;-81
2021/06/16 08:36:38;;;;;;;;;17.75;15.00;;;;;-144.77;100.00;61770.03;4981342;28;47069;-81
2021/06/16 08:39:05;;;;;;;;;13.50;13.50;;;;;-144.77;100.00;61770.03;4981818;28;47219;-81
2021/06/16 08:41:31;;;;;;;;;15.00;14.25;;;;;-144.77;100.00;61770.03;4974894;28;47155;-81
2021/06/16 08:43:58;;;;;;;;;16.00;12.50;;;;;-144.77;100.00;61770.03;4964016;28;47202;-81
2021/06/16 08:46:25;;;;;;;;;12.25;11.75;;;;;-144.77;100.00;61770.03;4981245;28;48114;-80
2021/06/16 08:48:50;;;;;;;;;14.00;14.00;;;;;-144.77;100.00;61770.03;4981351;28;47038;-80
2021/06/16 08:51:16;;;;;;;;;14.00;12.00;;;;;-144.77;100.00;61770.03;4981216;28;47026;-81
2021/06/16 08:53:45;;;;;;;;;13.50;12.25;;;;;-144.77;100.00;61770.03;4980248;28;47081;-81
2021/06/16 08:56:12;;;;;;;;;9.75;9.75;;;;;-144.77;100.00;61770.03;4980696;28;47017;-81
2021/06/16 08:58:41;;;;;;;;;14.00;13.75;;;;;-144.77;100.00;61770.03;4980655;28;47118;-81
2021/06/16 09:01:09;;;;;;;;;15.50;13.25;;;;;-144.77;100.00;61770.03;4981086;28;47142;-81
2021/06/16 09:03:35;;;;;;;;;14.50;12.00;;;;;-144.77;100.00;61770.03;4981269;28;47146;-81
2021/06/16 09:06:09;;;;;;;;;11.75;9.00;;;;;-144.77;100.00;61770.03;4980803;28;48156;-81
2021/06/16 09:08:58;;;;;;;;;13.00;10.50;;;;;-144.77;100.00;61770.03;4981026;28;47176;-81
2021/06/16 09:11:25;;;;;;;;;11.00;10.75;;;;;-144.77;100.00;61770.03;4951633;28;47074;-81
2021/06/16 09:14:09;;;;;;;;;13.25;10.75;;;;;-144.77;100.00;61770.03;4981104;28;47064;-81
2021/06/16 09:16:34;;;;;;;;;11.75;10.50;;;;;-144.77;100.00;61770.03;4981065;28;47153;-81
2021/06/16 09:19:00;;;;;;;;;11.25;11.00;;;;;-144.77;100.00;61770.03;4979330;28;47055;-81
2021/06/16 09:21:39;;;;;;;;;13.50;11.50;;;;;-144.77;100.00;61770.03;4981091;28;47090;-81
2021/06/16 09:24:08;;;;;;;;;10.25;9.75;;;;;-144.77;100.00;61770.03;4975546;28;47418;-81
2021/06/16 09:26:37;;;;;;;;;9.75;7.75;;;;;-144.77;100.00;61770.03;4973856;28;48055;-81
2021/06/16 09:29:03;;;;;;;;;15.25;11.00;;;;;-144.77;100.00;61770.03;4969469;28;47217;-81
2021/06/16 09:31:39;;;;;;;;;11.25;10.00;;;;;-144.77;100.00;61770.03;4980792;28;47096;-81
2021/06/16 09:34:10;;;;;;;;;11.50;10.25;;;;;-144.77;100.00;61770.03;4980609;28;46906;-81
2021/06/16 09:36:51;;;;;;;;;13.00;11.50;;;;;-144.77;100.00;61770.03;4980574;28;47056;-81
2021/06/16 09:39:24;;;;;;;;;13.50;12.25;;;;;-144.77;100.00;61770.03;4980625;28;46912;-81
2021/06/16 09:42:12;;;;;;;;;9.75;9.75;;;;;-144.77;100.00;61770.03;4973861;28;47097;-81
2021/06/16 09:44:50;;;;;;;;;9.75;9.75;;;;;-144.77;100.00;61770.03;4980700;28;46860;-81
2021/06/16 09:47:22;;;;;;;;;13.25;9.25;;;;;-144.77;100.00;61770.03;4980382;28;47106;-81
2021/06/16 09:49:50;;;;;;;;;11.75;11.50;;;;;-144.77;100.00;61770.03;4978894;28;46933;-81
2021/06/16 09:52:36;;;;;;;;;11.00;10.00;;;;;-144.77;100.00;61770.03;4980294;28;46991;-81
2021/06/16 09:55:04;;;;;;;;;11.00;10.75;;;;;-144.77;100.00;61770.03;4969007;28;47177;-81
2021/06/16 09:57:29;;;;;;;;;12.50;10.00;;;;;-144.77;100.00;61770.03;4978319;28;47220;-81
2021/06/16 10:00:02;;;;;;;;;12.25;10.50;;;;;-144.77;100.00;61770.03;4980227;28;47350;-82
2021/06/16 10:02:30;;;;;;;;;12.00;12.00;;;;;-144.77;100.00;61770.03;4977859;28;47221;-82
2021/06/16 10:05:00;;;;;;;;;9.25;8.50;;;;;-144.77;100.00;61770.03;4980456;28;46786;-82
2021/06/16 10:07:31;;;;;;;;;13.75;13.75;;;;;-144.77;100.00;61770.03;4978476;28;49408;-82
2021/06/16 10:10:04;;;;;;;;;11.75;10.50;;;;;-144.77;100.00;61770.03;4971517;28;46793;-82
2021/06/16 10:12:33;;;;;;;;;10.25;10.25;;;;;-144.77;100.00;61770.03;4976737;28;46817;-82
2021/06/16 10:15:01;;;;;;;;;10.00;10.00;;;;;-144.77;100.00;61770.03;4980326;28;46956;-82
2021/06/16 10:17:27;;;;;;;;;11.00;10.00;;;;;-144.77;100.00;61770.03;4979717;28;48233;-81
2021/06/16 10:19:54;;;;;;;;;10.25;9.00;;;;;-144.77;100.00;61770.03;4979796;28;47237;-82
2021/06/16 10:22:21;;;;;;;;;8.50;8.00;;;;;-144.77;100.00;61770.03;4979915;28;47133;-82
2021/06/16 10:24:47;;;;;;;;;10.50;10.50;;;;;-144.77;100.00;61770.03;4969941;28;46826;-82
2021/06/16 10:27:31;;;;;;;;;10.75;10.75;;;;;-144.77;100.00;61770.03;4978131;28;46824;-81
2021/06/16 10:30:12;;;;;;;;;11.25;11.25;;;;;-144.77;100.00;61770.03;4979726;28;46841;-81
2021/06/16 10:32:44;;;;;;;;;12.00;11.00;;;;;-144.77;100.00;61770.03;4980036;28;47019;-82
2021/06/16 10:35:13;;;;;;;;;11.50;11.50;;;;;-144.77;100.00;61770.03;4968646;28;47099;-82
2021/06/16 10:37:41;;;;;;;;;13.25;11.25;;;;;-144.77;100.00;61770.03;4979711;28;47000;-82
2021/06/16 10:40:19;;;;;;;;;14.50;12.50;;;;;-144.77;100.00;61770.03;4979580;28;46787;-82
2021/06/16 10:43:02;;;;;;;;;11.25;10.75;;;;;-144.77;100.00;61770.03;4972719;28;47037;-81
2021/06/16 10:45:51;;;;;;;;;11.25;10.50;;;;;-144.77;100.00;61770.03;4968876;28;46956;-81
2021/06/16 10:48:17;;;;;;;;;11.00;9.75;;;;;-144.77;100.00;61770.03;4977619;28;47020;-82
2021/06/16 10:50:46;;;;;;;;;11.00;10.00;;;;;-144.77;100.00;61770.03;4977450;28;46981;-82
2021/06/16 10:53:24;;;;;;;;;9.75;9.75;;;;;-144.77;100.00;61770.03;4979260;28;47086;-82
2021/06/16 10:55:54;;;;;;;;;11.50;9.75;;;;;-144.77;100.00;61770.03;4978907;28;47410;-82
2021/06/16 10:58:27;;;;;;;;;11.25;11.00;;;;;-144.77;100.00;61770.03;4979055;28;48092;-81
2021/06/16 11:01:16;;;;;;;;;12.50;11.75;;;;;-144.77;100.00;61770.03;4979180;28;47140;-82
2021/06/16 11:03:48;;;;;;;;;11.25;10.25;;;;;-144.77;100.00;61770.03;4979500;28;46948;-82
2021/06/16 11:06:32;;;;;;;;;11.00;10.00;;;;;-144.77;100.00;61770.03;4979614;28;46790;-82
2021/06/16 11:09:02;;;;;;;;;10.50;10.00;;;;;-144.77;100.00;61770.03;4978377;28;47264;-82
2021/06/16 11:11:46;;;;;;;;;10.50;9.75;;;;;-144.77;100.00;61770.03;4970017;28;47191;-81
2021/06/16 11:14:37;;;;;;;;;14.50;12.00;;;;;-144.77;100.00;61770.03;4979332;28;47289;-82
2021/06/16 11:17:11;;;;;;;;;9.50;9.50;;;;;-144.77;100.00;61770.03;4961820;28;47019;-82
2021/06/16 11:19:36;;;;;;;;;10.00;8.00;;;;;-144.77;100.00;61770.03;4977287;28;47331;-82
2021/06/16 11:22:24;;;;;;;;;12.00;12.00;;;;;-144.77;100.00;61770.03;4978411;28;46922;-82